Luis Adriao — CULM2 — position and weather

sailwx.info

Track history (hours):
 
Tides and Currents Weather Stations Pressure Air Temp Water Temp Dewpoint Dewpoint Depression Visibility Wind Speed Wind Dir Waves Ship Positions

Luis Adriao

Last reported at 2018-Jun-20 04:58 UTC. Time now 2018-Jun-20 05:27 UTC.
Position N 37°00' W 008°22'.

Length 22 m.

Type: Fishing. MMSI: 263500262.

Date/timePositionNaut miles runAvg speedWind from/ knotsBaromVisibWave heightAir tempDewpointWater temp
2018-Jun-20 04:58N 37°00' W 008°22'4 8.6
2018-Jun-20 04:30N 36°60' W 008°17'4 8.8
2018-Jun-20 04:00N 36°59' W 008°12'3 1.0
2018-Jun-20 01:05N 36°57' W 008°09'0 0.7
2018-Jun-20 01:00N 36°57' W 008°09'0 0.4
2018-Jun-20 00:15N 36°57' W 008°09'0 0.2
2018-Jun-19 23:59N 36°57' W 008°09'0 0.3
2018-Jun-19 23:30N 36°57' W 008°08'10 0.8
2018-Jun-19 09:43N 37°04' W 008°18'2 8.0
2018-Jun-19 09:30N 37°04' W 008°20'4 8.2
2018-Jun-19 09:00N 37°04' W 008°25'4 8.4
2018-Jun-19 08:30N 37°04' W 008°30'4 8.5
2018-Jun-19 08:00N 37°05' W 008°36'2 4.5
2018-Jun-19 07:30N 37°05' W 008°39'0 0.5
2018-Jun-19 07:00N 37°05' W 008°38'0 0.3
2018-Jun-19 06:30N 37°05' W 008°38'0 0.2
2018-Jun-19 06:00N 37°05' W 008°38'1 2.8
2018-Jun-19 05:30N 37°05' W 008°36'4 8.9
2018-Jun-19 05:00N 37°05' W 008°31'3 6.0
2018-Jun-19 04:30N 37°04' W 008°27'4 7.6
2018-Jun-19 04:00N 37°02' W 008°23'4 8.1
2018-Jun-19 03:30N 37°01' W 008°18'5 9.2
2018-Jun-19 03:00N 37°02' W 008°12'3 0.2
2018-Jun-18 07:01N 37°03' W 008°16'0 8.6
2018-Jun-18 07:00N 37°03' W 008°17'4 8.4
2018-Jun-18 06:30N 37°03' W 008°22'2 4.4
2018-Jun-18 06:00N 37°03' W 008°24'0 0.4
2018-Jun-18 05:30N 37°03' W 008°24'0 0.2
2018-Jun-18 05:00N 37°03' W 008°24'0 0.2
2018-Jun-18 04:31N 37°03' W 008°24'0 0.1
2018-Jun-18 04:01N 37°03' W 008°24'3 5.9
2018-Jun-18 03:30N 37°00' W 008°25'3 5.3
2018-Jun-18 03:00N 36°58' W 008°23'4 8.5
2018-Jun-18 02:30N 36°58' W 008°18'4 8.6
2018-Jun-18 02:00N 36°57' W 008°13'4 8.7
2018-Jun-18 01:30N 36°54' W 008°09'  
2018-Jun-15 09:21N 37°04' W 008°18'3 9.1
2018-Jun-15 09:01N 37°04' W 008°22'5 9.1
2018-Jun-15 08:27N 37°04' W 008°28'4 9.2
2018-Jun-15 08:00N 37°04' W 008°33'4 9.1
2018-Jun-15 07:30N 37°04' W 008°39'0 0.8
2018-Jun-15 07:00N 37°04' W 008°39'0 0.1
2018-Jun-15 06:30N 37°04' W 008°39'0 0.2
2018-Jun-15 06:00N 37°05' W 008°39'0 0.4
2018-Jun-15 05:30N 37°05' W 008°39'1 2.2
2018-Jun-15 05:00N 37°04' W 008°38'2 4.4
2018-Jun-15 04:30N 37°05' W 008°35'4 9.0
2018-Jun-15 04:01N 37°04' W 008°30'4 8.0
2018-Jun-15 03:30N 37°03' W 008°25'4 8.8
2018-Jun-15 03:01N 37°00' W 008°20'4 8.8
2018-Jun-15 02:31N 36°59' W 008°15'4 8.8
2018-Jun-15 02:00N 36°56' W 008°10'1 2.7
2018-Jun-15 01:30N 36°56' W 008°09'0 0.2
2018-Jun-15 00:59N 36°56' W 008°09'0 0.1
2018-Jun-15 00:29N 36°56' W 008°09'1 2.5
2018-Jun-14 23:55N 36°54' W 008°09'6 5.8
2018-Jun-14 22:54N 37°00' W 008°09'1 2.7
2018-Jun-14 22:30N 36°59' W 008°09'3 6.7
2018-Jun-14 22:00N 36°58' W 008°05'4 0.2
2018-Jun-13 22:13N 36°55' W 008°09'0 0.1
2018-Jun-13 21:37N 36°55' W 008°09'0 0.2
2018-Jun-13 20:59N 36°55' W 008°09'5 4.8
2018-Jun-13 19:50N 36°59' W 008°13'3 7.5
2018-Jun-13 19:29N 37°00' W 008°10'5 0.3
2018-Jun-13 04:28N 36°55' W 008°08'0 0.3
2018-Jun-13 03:59N 36°56' W 008°08'0 0.2
2018-Jun-13 03:30N 36°56' W 008°08'4 0.2
2018-Jun-12 03:31N 36°58' W 008°11'0 0.6
2018-Jun-12 03:30N 36°58' W 008°11'0 0.1
2018-Jun-12 03:00N 36°58' W 008°11'0 0.3
2018-Jun-12 02:30N 36°58' W 008°11'3 4.7
2018-Jun-12 01:54N 37°01' W 008°09'1 0.1
2018-Jun-11 04:31N 36°60' W 008°08'0 0.1
2018-Jun-11 04:19N 36°60' W 008°09'2 0.9
2018-Jun-11 02:01N 37°00' W 008°11'0 0.2
2018-Jun-11 01:58N 37°00' W 008°11'0 0.1
2018-Jun-11 01:18N 37°00' W 008°11'0 0.1
2018-Jun-11 01:00N 37°00' W 008°11'  
Track history (hours):
 
Tides and Currents Weather Stations Pressure Air Temp Water Temp Dewpoint Dewpoint Depression Visibility Wind Speed Wind Dir Waves Ship Positions

Luis Adriao

Last reported at 2018-Jun-20 04:58 UTC. Time now 2018-Jun-20 05:27 UTC.
Position N 37°00' W 008°22'.

Length 22 m.

Type: Fishing. MMSI: 263500262.

Date/timePositionNaut miles runAvg speedWind from/ knotsBaromVisibWave heightAir tempDewpointWater temp
2018-Jun-20 04:58N 37°00' W 008°22'4 8.6
2018-Jun-20 04:30N 36°60' W 008°17'4 8.8
2018-Jun-20 04:00N 36°59' W 008°12'3 1.0
2018-Jun-20 01:05N 36°57' W 008°09'0 0.7
2018-Jun-20 01:00N 36°57' W 008°09'0 0.4
2018-Jun-20 00:15N 36°57' W 008°09'0 0.2
2018-Jun-19 23:59N 36°57' W 008°09'0 0.3
2018-Jun-19 23:30N 36°57' W 008°08'10 0.8
2018-Jun-19 09:43N 37°04' W 008°18'2 8.0
2018-Jun-19 09:30N 37°04' W 008°20'4 8.2
2018-Jun-19 09:00N 37°04' W 008°25'4 8.4
2018-Jun-19 08:30N 37°04' W 008°30'4 8.5
2018-Jun-19 08:00N 37°05' W 008°36'2 4.5
2018-Jun-19 07:30N 37°05' W 008°39'0 0.5
2018-Jun-19 07:00N 37°05' W 008°38'0 0.3
2018-Jun-19 06:30N 37°05' W 008°38'0 0.2
2018-Jun-19 06:00N 37°05' W 008°38'1 2.8
2018-Jun-19 05:30N 37°05' W 008°36'4 8.9
2018-Jun-19 05:00N 37°05' W 008°31'3 6.0
2018-Jun-19 04:30N 37°04' W 008°27'4 7.6
2018-Jun-19 04:00N 37°02' W 008°23'4 8.1
2018-Jun-19 03:30N 37°01' W 008°18'5 9.2
2018-Jun-19 03:00N 37°02' W 008°12'3 0.2
2018-Jun-18 07:01N 37°03' W 008°16'0 8.6
2018-Jun-18 07:00N 37°03' W 008°17'4 8.4
2018-Jun-18 06:30N 37°03' W 008°22'2 4.4
2018-Jun-18 06:00N 37°03' W 008°24'0 0.4
2018-Jun-18 05:30N 37°03' W 008°24'0 0.2
2018-Jun-18 05:00N 37°03' W 008°24'0 0.2
2018-Jun-18 04:31N 37°03' W 008°24'0 0.1
2018-Jun-18 04:01N 37°03' W 008°24'3 5.9
2018-Jun-18 03:30N 37°00' W 008°25'3 5.3
2018-Jun-18 03:00N 36°58' W 008°23'4 8.5
2018-Jun-18 02:30N 36°58' W 008°18'4 8.6
2018-Jun-18 02:00N 36°57' W 008°13'4 8.7
2018-Jun-18 01:30N 36°54' W 008°09'  
2018-Jun-15 09:21N 37°04' W 008°18'3 9.1
2018-Jun-15 09:01N 37°04' W 008°22'5 9.1
2018-Jun-15 08:27N 37°04' W 008°28'4 9.2
2018-Jun-15 08:00N 37°04' W 008°33'4 9.1
2018-Jun-15 07:30N 37°04' W 008°39'0 0.8
2018-Jun-15 07:00N 37°04' W 008°39'0 0.1
2018-Jun-15 06:30N 37°04' W 008°39'0 0.2
2018-Jun-15 06:00N 37°05' W 008°39'0 0.4
2018-Jun-15 05:30N 37°05' W 008°39'1 2.2
2018-Jun-15 05:00N 37°04' W 008°38'2 4.4
2018-Jun-15 04:30N 37°05' W 008°35'4 9.0
2018-Jun-15 04:01N 37°04' W 008°30'4 8.0
2018-Jun-15 03:30N 37°03' W 008°25'4 8.8
2018-Jun-15 03:01N 37°00' W 008°20'4 8.8
2018-Jun-15 02:31N 36°59' W 008°15'4 8.8
2018-Jun-15 02:00N 36°56' W 008°10'1 2.7
2018-Jun-15 01:30N 36°56' W 008°09'0 0.2
2018-Jun-15 00:59N 36°56' W 008°09'0 0.1
2018-Jun-15 00:29N 36°56' W 008°09'1 2.5
2018-Jun-14 23:55N 36°54' W 008°09'6 5.8
2018-Jun-14 22:54N 37°00' W 008°09'1 2.7
2018-Jun-14 22:30N 36°59' W 008°09'3 6.7
2018-Jun-14 22:00N 36°58' W 008°05'4 0.2
2018-Jun-13 22:13N 36°55' W 008°09'0 0.1
2018-Jun-13 21:37N 36°55' W 008°09'0 0.2
2018-Jun-13 20:59N 36°55' W 008°09'5 4.8
2018-Jun-13 19:50N 36°59' W 008°13'3 7.5
2018-Jun-13 19:29N 37°00' W 008°10'5 0.3
2018-Jun-13 04:28N 36°55' W 008°08'0 0.3
2018-Jun-13 03:59N 36°56' W 008°08'0 0.2
2018-Jun-13 03:30N 36°56' W 008°08'4 0.2
2018-Jun-12 03:31N 36°58' W 008°11'0 0.6
2018-Jun-12 03:30N 36°58' W 008°11'0 0.1
2018-Jun-12 03:00N 36°58' W 008°11'0 0.3
2018-Jun-12 02:30N 36°58' W 008°11'3 4.7
2018-Jun-12 01:54N 37°01' W 008°09'1 0.1
2018-Jun-11 04:31N 36°60' W 008°08'0 0.1
2018-Jun-11 04:19N 36°60' W 008°09'2 0.9
2018-Jun-11 02:01N 37°00' W 008°11'0 0.2
2018-Jun-11 01:58N 37°00' W 008°11'0 0.1
2018-Jun-11 01:18N 37°00' W 008°11'0 0.1
2018-Jun-11 01:00N 37°00' W 008°11'  

Dump ship's entire track history